PWSweather.com
Personal Weather Stations
Station Observations

ThassosGR

Lat: 40.743206, Lon: 24.577205

Elevation: 150

Station Type:

http://www.realestate-thassos.com/weather-thassos/

Latest ConditionsUpdated 5:01:46 PM GMT+02:02 Friday, Feb 24, 2017
Currently Today's Max Today's Min Today's Average
Temperature 61.5°F16.4°C 64.2°F17.9°C 43.5°F6.4°C 53.0°F11.7°C
Dew Point 52.4°F11.3°C 54.8°F12.7°C 42.4°F5.8°C 48.1°F8.9°C
Winds 2.2 mph NNE3.5 kmh NNE 4.5 mph NW7.2 kmh NW - 1.7 mph 2.7 kmh
Wind Gusts 7.6 mph12.2 kmh 9.8 mph15.8 kmh - -
Humidity 72% 98% 62% 84%
Pressure 29.69 in1005.4 mb 29.74 in1007.1 mb 29.67 in1004.7 mb -
Hour Temp Dew Point Humidity Winds Wind Gusts Pressure Precip Precip Rate Daily Precip Total
05:01 PM 61.5°F16.4°C 52.4°F11.3°C 72% 2.2 mph NNE3.5 kmh NNE 7.6 mph12.2 kmh 29.69 in1005.4 mb 0.00 in0.0 mm 0.00 in0.0 mm 0.00 in0.0 mm
04:47 PM 62.1°F16.7°C 52.9°F11.6°C 72% 4.5 mph NNW7.2 kmh NNW 6.9 mph11.1 kmh 29.69 in1005.4 mb 0.00 in0.0 mm 0.00 in0.0 mm 0.00 in0.0 mm
04:33 PM 62.2°F16.8°C 51.2°F10.7°C 67% 3.8 mph NNE6.1 kmh NNE 9.2 mph14.8 kmh 29.68 in1005.1 mb 0.00 in0.0 mm 0.00 in0.0 mm 0.00 in0.0 mm
04:19 PM 63.0°F17.2°C 49.8°F9.9°C 62% 0.7 mph ENE1.1 kmh ENE 4.5 mph7.2 kmh 29.68 in1005.1 mb 0.00 in0.0 mm 0.00 in0.0 mm 0.00 in0.0 mm
04:05 PM 63.5°F17.5°C 50.7°F10.4°C 63% 0.7 mph NNW1.1 kmh NNW 6.0 mph9.7 kmh 29.67 in1004.7 mb 0.00 in0.0 mm 0.00 in0.0 mm 0.00 in0.0 mm
03:51 PM 64.2°F17.9°C 51.8°F11.0°C 64% Calm Calm 8.3 mph13.4 kmh 29.68 in1005.1 mb 0.00 in0.0 mm 0.00 in0.0 mm 0.00 in0.0 mm
03:37 PM 64.2°F17.9°C 53.1°F11.7°C 67% 0.7 mph NW1.1 kmh NW 5.4 mph8.7 kmh 29.68 in1005.1 mb 0.00 in0.0 mm 0.00 in0.0 mm 0.00 in0.0 mm
03:23 PM 63.7°F17.6°C 52.9°F11.6°C 68% 1.6 mph NW2.6 kmh NW 6.9 mph11.1 kmh 29.69 in1005.4 mb 0.00 in0.0 mm 0.00 in0.0 mm 0.00 in0.0 mm
03:09 PM 63.7°F17.6°C 54.5°F12.5°C 72% 3.1 mph N5.0 kmh N 6.9 mph11.1 kmh 29.68 in1005.1 mb 0.00 in0.0 mm 0.00 in0.0 mm 0.00 in0.0 mm
02:55 PM 62.6°F17.0°C 53.5°F11.9°C 72% Calm Calm 6.0 mph9.7 kmh 29.69 in1005.4 mb 0.00 in0.0 mm 0.00 in0.0 mm 0.00 in0.0 mm
02:41 PM 62.8°F17.1°C 53.6°F12.0°C 72% Calm Calm 6.0 mph9.7 kmh 29.69 in1005.4 mb 0.00 in0.0 mm 0.00 in0.0 mm 0.00 in0.0 mm
02:27 PM 61.9°F16.6°C 53.1°F11.7°C 73% 0.7 mph NNW1.1 kmh NNW 7.6 mph12.2 kmh 29.69 in1005.4 mb 0.00 in0.0 mm 0.00 in0.0 mm 0.00 in0.0 mm
02:13 PM 62.2°F16.8°C 53.1°F11.7°C 72% 4.5 mph NNW7.2 kmh NNW 6.9 mph11.1 kmh 29.69 in1005.4 mb 0.00 in0.0 mm 0.00 in0.0 mm 0.00 in0.0 mm
01:59 PM 63.1°F17.3°C 54.0°F12.2°C 72% 1.6 mph NW2.6 kmh NW 7.6 mph12.2 kmh 29.69 in1005.4 mb 0.00 in0.0 mm 0.00 in0.0 mm 0.00 in0.0 mm
01:45 PM 62.4°F16.9°C 53.7°F12.1°C 73% 3.8 mph NW6.1 kmh NW 6.9 mph11.1 kmh 29.69 in1005.4 mb 0.00 in0.0 mm 0.00 in0.0 mm 0.00 in0.0 mm
01:31 PM 62.4°F16.9°C 53.7°F12.1°C 73% 0.7 mph NW1.1 kmh NW 6.0 mph9.7 kmh 29.70 in1005.8 mb 0.00 in0.0 mm 0.00 in0.0 mm 0.00 in0.0 mm
01:17 PM 62.6°F17.0°C 52.7°F11.5°C 70% 3.8 mph NNW6.1 kmh NNW 8.3 mph13.4 kmh 29.70 in1005.8 mb 0.00 in0.0 mm 0.00 in0.0 mm 0.00 in0.0 mm
01:03 PM 62.2°F16.8°C 53.5°F11.9°C 73% 1.6 mph NW2.6 kmh NW 9.2 mph14.8 kmh 29.70 in1005.8 mb 0.00 in0.0 mm 0.00 in0.0 mm 0.00 in0.0 mm
12:49 PM 62.2°F16.8°C 53.1°F11.7°C 72% 4.5 mph NW7.2 kmh NW 8.3 mph13.4 kmh 29.71 in1006.1 mb 0.00 in0.0 mm 0.00 in0.0 mm 0.00 in0.0 mm
12:35 PM 61.5°F16.4°C 52.4°F11.3°C 72% 2.2 mph NW3.5 kmh NW 9.8 mph15.8 kmh 29.72 in1006.4 mb 0.00 in0.0 mm 0.00 in0.0 mm 0.00 in0.0 mm
12:21 PM 61.7°F16.5°C 52.6°F11.4°C 72% 3.8 mph NW6.1 kmh NW 8.3 mph13.4 kmh 29.72 in1006.4 mb 0.00 in0.0 mm 0.00 in0.0 mm 0.00 in0.0 mm
12:07 PM 61.5°F16.4°C 52.4°F11.3°C 72% 3.1 mph NW5.0 kmh NW 7.6 mph12.2 kmh 29.72 in1006.4 mb 0.00 in0.0 mm 0.00 in0.0 mm 0.00 in0.0 mm
11:53 AM 61.7°F16.5°C 52.6°F11.4°C 72% 0.7 mph NW1.1 kmh NW 9.2 mph14.8 kmh 29.73 in1006.8 mb 0.00 in0.0 mm 0.00 in0.0 mm 0.00 in0.0 mm
11:39 AM 61.5°F16.4°C 53.2°F11.8°C 74% 2.2 mph WNW3.5 kmh WNW 8.3 mph13.4 kmh 29.73 in1006.8 mb 0.00 in0.0 mm 0.00 in0.0 mm 0.00 in0.0 mm
11:25 AM 61.3°F16.3°C 53.0°F11.7°C 74% 3.1 mph NW5.0 kmh NW 7.6 mph12.2 kmh 29.73 in1006.8 mb 0.00 in0.0 mm 0.00 in0.0 mm 0.00 in0.0 mm
11:11 AM 60.8°F16.0°C 53.2°F11.8°C 76% 1.6 mph NNW2.6 kmh NNW 4.5 mph7.2 kmh 29.73 in1006.8 mb 0.00 in0.0 mm 0.00 in0.0 mm 0.00 in0.0 mm
10:57 AM 60.8°F16.0°C 54.3°F12.4°C 79% 0.7 mph NNW1.1 kmh NNW 7.6 mph12.2 kmh 29.73 in1006.8 mb 0.00 in0.0 mm 0.00 in0.0 mm 0.00 in0.0 mm
10:43 AM 60.3°F15.7°C 54.8°F12.7°C 82% 0.7 mph NNW1.1 kmh NNW 5.4 mph8.7 kmh 29.73 in1006.8 mb 0.00 in0.0 mm 0.00 in0.0 mm 0.00 in0.0 mm
10:29 AM 59.5°F15.3°C 54.4°F12.4°C 83% 2.2 mph NNW3.5 kmh NNW 9.2 mph14.8 kmh 29.73 in1006.8 mb 0.00 in0.0 mm 0.00 in0.0 mm 0.00 in0.0 mm
10:15 AM 58.8°F14.9°C 54.0°F12.2°C 84% 0.7 mph NE1.1 kmh NE 4.5 mph7.2 kmh 29.73 in1006.8 mb 0.00 in0.0 mm 0.00 in0.0 mm 0.00 in0.0 mm
10:01 AM 58.6°F14.8°C 53.8°F12.1°C 84% Calm Calm 5.4 mph8.7 kmh 29.73 in1006.8 mb 0.00 in0.0 mm 0.00 in0.0 mm 0.00 in0.0 mm
09:47 AM 58.6°F14.8°C 54.2°F12.3°C 85% 0.7 mph NNW1.1 kmh NNW 6.0 mph9.7 kmh 29.73 in1006.8 mb 0.00 in0.0 mm 0.00 in0.0 mm 0.00 in0.0 mm
09:33 AM 57.9°F14.4°C 54.1°F12.3°C 87% 0.7 mph NNW1.1 kmh NNW 4.5 mph7.2 kmh 29.72 in1006.4 mb 0.00 in0.0 mm 0.00 in0.0 mm 0.00 in0.0 mm
09:19 AM 56.7°F13.7°C 53.8°F12.1°C 90% 1.6 mph NW2.6 kmh NW 3.1 mph5.0 kmh 29.72 in1006.4 mb 0.00 in0.0 mm 0.00 in0.0 mm 0.00 in0.0 mm
09:05 AM 54.5°F12.5°C 52.2°F11.2°C 92% Calm Calm 3.1 mph5.0 kmh 29.71 in1006.1 mb 0.00 in0.0 mm 0.00 in0.0 mm 0.00 in0.0 mm
08:51 AM 53.2°F11.8°C 51.3°F10.7°C 93% Calm Calm 2.2 mph3.5 kmh 29.72 in1006.4 mb 0.00 in0.0 mm 0.00 in0.0 mm 0.00 in0.0 mm
08:37 AM 50.7°F10.4°C 49.1°F9.5°C 94% 0.7 mph SSE1.1 kmh SSE 3.1 mph5.0 kmh 29.72 in1006.4 mb 0.00 in0.0 mm 0.00 in0.0 mm 0.00 in0.0 mm
08:23 AM 48.4°F9.1°C 47.3°F8.5°C 96% 0.7 mph SE1.1 kmh SE 3.8 mph6.1 kmh 29.72 in1006.4 mb 0.00 in0.0 mm 0.00 in0.0 mm 0.00 in0.0 mm
08:09 AM 46.0°F7.8°C 45.2°F7.3°C 97% 2.2 mph SE3.5 kmh SE 3.8 mph6.1 kmh 29.71 in1006.1 mb 0.00 in0.0 mm 0.00 in0.0 mm 0.00 in0.0 mm
07:55 AM 43.9°F6.6°C 43.4°F6.3°C 98% Calm Calm 3.1 mph5.0 kmh 29.72 in1006.4 mb 0.00 in0.0 mm 0.00 in0.0 mm 0.00 in0.0 mm
07:41 AM 43.7°F6.5°C 43.2°F6.2°C 98% 1.6 mph SE2.6 kmh SE 3.8 mph6.1 kmh 29.72 in1006.4 mb 0.00 in0.0 mm 0.00 in0.0 mm 0.00 in0.0 mm
07:27 AM 44.1°F6.7°C 43.5°F6.4°C 98% 1.6 mph SE2.6 kmh SE 3.8 mph6.1 kmh 29.72 in1006.4 mb 0.00 in0.0 mm 0.00 in0.0 mm 0.00 in0.0 mm
07:13 AM 43.7°F6.5°C 43.2°F6.2°C 98% 2.2 mph SE3.5 kmh SE 4.5 mph7.2 kmh 29.71 in1006.1 mb 0.00 in0.0 mm 0.00 in0.0 mm 0.00 in0.0 mm
06:59 AM 43.5°F6.4°C 42.7°F5.9°C 97% 2.2 mph SE3.5 kmh SE 3.8 mph6.1 kmh 29.71 in1006.1 mb 0.00 in0.0 mm 0.00 in0.0 mm 0.00 in0.0 mm
06:45 AM 43.7°F6.5°C 42.6°F5.9°C 96% 1.6 mph SE2.6 kmh SE 3.1 mph5.0 kmh 29.71 in1006.1 mb 0.00 in0.0 mm 0.00 in0.0 mm 0.00 in0.0 mm
06:31 AM 43.7°F6.5°C 42.4°F5.8°C 95% 1.6 mph SE2.6 kmh SE 3.1 mph5.0 kmh 29.71 in1006.1 mb 0.00 in0.0 mm 0.00 in0.0 mm 0.00 in0.0 mm
06:17 AM 44.1°F6.7°C 42.7°F5.9°C 95% 1.6 mph SE2.6 kmh SE 3.1 mph5.0 kmh 29.71 in1006.1 mb 0.00 in0.0 mm 0.00 in0.0 mm 0.00 in0.0 mm
06:03 AM 44.2°F6.8°C 42.9°F6.1°C 95% 1.6 mph SE2.6 kmh SE 4.5 mph7.2 kmh 29.70 in1005.8 mb 0.00 in0.0 mm 0.00 in0.0 mm 0.00 in0.0 mm
05:49 AM 44.2°F6.8°C 42.6°F5.9°C 94% 1.6 mph SE2.6 kmh SE 3.8 mph6.1 kmh 29.71 in1006.1 mb 0.00 in0.0 mm 0.00 in0.0 mm 0.00 in0.0 mm
05:35 AM 44.8°F7.1°C 42.9°F6.1°C 93% 1.6 mph SE2.6 kmh SE 3.1 mph5.0 kmh 29.71 in1006.1 mb 0.00 in0.0 mm 0.00 in0.0 mm 0.00 in0.0 mm
05:21 AM 44.8°F7.1°C 42.9°F6.1°C 93% 1.6 mph SE2.6 kmh SE 3.8 mph6.1 kmh 29.71 in1006.1 mb 0.00 in0.0 mm 0.00 in0.0 mm 0.00 in0.0 mm
05:07 AM 45.0°F7.2°C 43.3°F6.3°C 94% 2.2 mph SE3.5 kmh SE 3.8 mph6.1 kmh 29.70 in1005.8 mb 0.00 in0.0 mm 0.00 in0.0 mm 0.00 in0.0 mm
04:53 AM 44.8°F7.1°C 42.9°F6.1°C 93% 1.6 mph SE2.6 kmh SE 3.1 mph5.0 kmh 29.70 in1005.8 mb 0.00 in0.0 mm 0.00 in0.0 mm 0.00 in0.0 mm
04:39 AM 45.0°F7.2°C 43.3°F6.3°C 94% 2.2 mph SE3.5 kmh SE 4.5 mph7.2 kmh 29.71 in1006.1 mb 0.00 in0.0 mm 0.00 in0.0 mm 0.00 in0.0 mm
04:25 AM 44.8°F7.1°C 43.2°F6.2°C 94% 2.2 mph SE3.5 kmh SE 4.5 mph7.2 kmh 29.71 in1006.1 mb 0.00 in0.0 mm 0.00 in0.0 mm 0.00 in0.0 mm
04:11 AM 44.8°F7.1°C 43.2°F6.2°C 94% 2.2 mph SE3.5 kmh SE 3.8 mph6.1 kmh 29.71 in1006.1 mb 0.00 in0.0 mm 0.00 in0.0 mm 0.00 in0.0 mm
03:57 AM 44.6°F7.0°C 42.7°F5.9°C 93% 1.6 mph SE2.6 kmh SE 4.5 mph7.2 kmh 29.71 in1006.1 mb 0.00 in0.0 mm 0.00 in0.0 mm 0.00 in0.0 mm
03:43 AM 44.4°F6.9°C 42.8°F6.0°C 94% 2.2 mph SE3.5 kmh SE 3.8 mph6.1 kmh 29.71 in1006.1 mb 0.00 in0.0 mm 0.00 in0.0 mm 0.00 in0.0 mm
03:29 AM 44.4°F6.9°C 42.5°F5.8°C 93% 1.6 mph SE2.6 kmh SE 3.8 mph6.1 kmh 29.72 in1006.4 mb 0.00 in0.0 mm 0.00 in0.0 mm 0.00 in0.0 mm
03:15 AM 44.6°F7.0°C 42.4°F5.8°C 92% 1.6 mph SE2.6 kmh SE 3.8 mph6.1 kmh 29.72 in1006.4 mb 0.00 in0.0 mm 0.00 in0.0 mm 0.00 in0.0 mm
03:01 AM 44.6°F7.0°C 42.4°F5.8°C 92% 1.6 mph SSE2.6 kmh SSE 3.1 mph5.0 kmh 29.72 in1006.4 mb 0.00 in0.0 mm 0.00 in0.0 mm 0.00 in0.0 mm
02:47 AM 44.6°F7.0°C 42.4°F5.8°C 92% 0.7 mph SE1.1 kmh SE 4.5 mph7.2 kmh 29.72 in1006.4 mb 0.00 in0.0 mm 0.00 in0.0 mm 0.00 in0.0 mm
02:33 AM 45.0°F7.2°C 42.8°F6.0°C 92% 1.6 mph SE2.6 kmh SE 4.5 mph7.2 kmh 29.73 in1006.8 mb 0.00 in0.0 mm 0.00 in0.0 mm 0.00 in0.0 mm
02:19 AM 45.0°F7.2°C 42.8°F6.0°C 92% 3.1 mph SE5.0 kmh SE 3.8 mph6.1 kmh 29.73 in1006.8 mb 0.00 in0.0 mm 0.00 in0.0 mm 0.00 in0.0 mm
02:05 AM 45.0°F7.2°C 42.5°F5.8°C 91% 2.2 mph SE3.5 kmh SE 3.8 mph6.1 kmh 29.73 in1006.8 mb 0.00 in0.0 mm 0.00 in0.0 mm 0.00 in0.0 mm
01:51 AM 45.3°F7.4°C 42.9°F6.1°C 91% 1.6 mph SE2.6 kmh SE 3.8 mph6.1 kmh 29.74 in1007.1 mb 0.00 in0.0 mm 0.00 in0.0 mm 0.00 in0.0 mm
01:37 AM 45.3°F7.4°C 42.6°F5.9°C 90% 1.6 mph SE2.6 kmh SE 3.1 mph5.0 kmh 29.74 in1007.1 mb 0.00 in0.0 mm 0.00 in0.0 mm 0.00 in0.0 mm
01:23 AM 46.0°F7.8°C 43.0°F6.1°C 89% 0.7 mph SE1.1 kmh SE 2.2 mph3.5 kmh 29.74 in1007.1 mb 0.00 in0.0 mm 0.00 in0.0 mm 0.00 in0.0 mm
01:09 AM 46.6°F8.1°C 43.5°F6.4°C 89% 0.7 mph SE1.1 kmh SE 3.1 mph5.0 kmh 29.74 in1007.1 mb 0.00 in0.0 mm 0.00 in0.0 mm 0.00 in0.0 mm
12:55 AM 46.6°F8.1°C 43.8°F6.6°C 90% 1.6 mph SE2.6 kmh SE 4.5 mph7.2 kmh 29.74 in1007.1 mb 0.00 in0.0 mm 0.00 in0.0 mm 0.00 in0.0 mm
12:41 AM 46.2°F7.9°C 43.7°F6.5°C 91% 1.6 mph SE2.6 kmh SE 3.1 mph5.0 kmh 29.74 in1007.1 mb 0.00 in0.0 mm 0.00 in0.0 mm 0.00 in0.0 mm
12:27 AM 46.4°F8.0°C 43.6°F6.4°C 90% 0.7 mph SE1.1 kmh SE 3.1 mph5.0 kmh 29.74 in1007.1 mb 0.00 in0.0 mm 0.00 in0.0 mm 0.00 in0.0 mm
12:13 AM 46.8°F8.2°C 44.0°F6.7°C 90% 0.7 mph S1.1 kmh S 2.2 mph3.5 kmh 29.74 in1007.1 mb 0.00 in0.0 mm 0.00 in0.0 mm 0.00 in0.0 mm